Time;durP1;ratioP1;P1;durP2;ratioP2;P2;SDS_P1;SDS_P2;PMS_P1;PMS_P2;Temp;Humidity;BMP_temperature;BMP_pressure;BME280_temperature;BME280_humidity;BME280_pressure;Samples;Min_cycle;Max_cycle;Signal;HPM_P1;HPM_P2
2022/12/15 00:40:26;;;;;;;50.03;22.13;;;-4.00;1.00;;;;;;5100026;27;20047;-83
2022/12/15 00:42:51;;;;;;;39.28;19.30;;;-3.90;1.00;;;;;;5098642;27;20050;-82
2022/12/15 00:45:17;;;;;;;43.72;21.55;;;-3.90;1.00;;;;;;5087625;28;20047;-83
2022/12/15 00:47:43;;;;;;;48.00;22.58;;;-3.80;1.00;;;;;;5074071;27;20052;-83
2022/12/15 01:20:18;;;;;;;41.13;20.08;;;-3.50;49.10;;;;;;5093774;27;20882;-82
2022/12/15 01:22:45;;;;;;;41.30;20.05;;;-3.50;49.20;;;;;;5112502;27;20043;-83
2022/12/15 01:25:11;;;;;;;46.00;21.33;;;-3.50;47.70;;;;;;5125572;27;20477;-82
2022/12/15 01:27:36;;;;;;;45.83;20.90;;;-3.40;43.80;;;;;;5085021;27;20341;-83
2022/12/15 01:30:04;;;;;;;45.15;19.88;;;-3.50;39.80;;;;;;5111878;27;20076;-83
2022/12/15 01:32:30;;;;;;;45.45;21.00;;;-3.50;34.80;;;;;;5075031;28;20054;-82
2022/12/15 01:34:55;;;;;;;45.05;19.92;;;-3.60;31.00;;;;;;5087142;27;20252;-85
2022/12/15 01:37:21;;;;;;;46.17;19.15;;;-3.60;35.50;;;;;;5081765;28;20108;-82
2022/12/15 01:42:31;;;;;;;47.90;21.55;;;-3.60;42.50;;;;;;5112971;27;20087;-82
2022/12/15 01:45:22;;;;;;;47.92;20.92;;;-3.60;38.10;;;;;;5094990;27;20047;-83
2022/12/15 01:47:54;;;;;;;45.53;19.48;;;-3.60;33.30;;;;;;5112549;27;20054;-82
2022/12/15 01:50:21;;;;;;;44.33;21.52;;;-3.60;31.20;;;;;;5113512;27;20054;-83
2022/12/15 01:52:49;;;;;;;39.60;19.42;;;-3.60;35.50;;;;;;5069407;27;20088;-82
2022/12/15 01:55:17;;;;;;;39.72;19.10;;;-3.70;29.50;;;;;;5114735;27;20087;-82
2022/12/15 01:57:45;;;;;;;41.13;19.27;;;-3.60;27.20;;;;;;5109803;27;20503;-82
2022/12/15 02:00:11;;;;;;;42.80;20.33;;;-3.70;29.70;;;;;;5090942;27;20053;-82
2022/12/15 02:02:37;;;;;;;43.42;19.08;;;-3.70;31.00;;;;;;5109493;27;20043;-83
2022/12/15 02:05:04;;;;;;;42.92;20.25;;;-3.70;26.40;;;;;;5091908;27;20047;-82
2022/12/15 02:07:29;;;;;;;40.53;18.23;;;-3.70;28.30;;;;;;5110686;27;20043;-82
2022/12/15 02:10:00;;;;;;;45.28;19.77;;;-3.70;27.70;;;;;;5079555;27;20488;-83
2022/12/15 02:12:44;;;;;;;46.15;19.67;;;-3.70;23.60;;;;;;5088978;28;20047;-82
2022/12/15 02:15:32;;;;;;;48.05;19.75;;;-3.70;22.10;;;;;;5110883;27;20131;-83
2022/12/15 02:18:06;;;;;;;39.38;17.85;;;-3.70;23.60;;;;;;5091004;27;20557;-83
2022/12/15 02:21:12;;;;;;;38.97;18.95;;;-3.70;21.80;;;;;;5102521;27;20055;-83
2022/12/15 02:24:03;;;;;;;33.50;16.38;;;-3.70;20.20;;;;;;5079715;27;20090;-83
2022/12/15 02:26:50;;;;;;;38.42;18.08;;;-3.70;22.10;;;;;;5089005;27;20059;-83
2022/12/15 02:29:27;;;;;;;36.63;17.05;;;-3.70;23.70;;;;;;5092637;27;20107;-83
2022/12/15 02:32:08;;;;;;;40.38;19.70;;;-3.70;21.30;;;;;;5106387;28;20051;-83
2022/12/15 02:34:49;;;;;;;35.80;17.67;;;-3.70;21.50;;;;;;5094775;28;20433;-83
2022/12/15 02:37:30;;;;;;;31.58;15.57;;;-3.70;22.80;;;;;;5108163;27;20507;-84
2022/12/15 02:39:56;;;;;;;35.10;16.92;;;-3.70;25.80;;;;;;5092921;27;20095;-83
2022/12/15 02:42:23;;;;;;;37.40;16.92;;;-3.60;26.50;;;;;;5092708;28;20462;-84
2022/12/15 02:45:05;;;;;;;31.58;16.75;;;-3.60;28.50;;;;;;5090639;28;20126;-83
2022/12/15 02:47:52;;;;;;;34.13;15.48;;;-3.60;32.80;;;;;;5110720;28;20146;-83
2022/12/15 02:50:30;;;;;;;32.85;15.90;;;-3.60;38.40;;;;;;5093137;27;20126;-83
2022/12/15 02:53:20;;;;;;;35.33;16.70;;;-3.60;37.50;;;;;;5084158;28;20046;-83
2022/12/15 02:56:04;;;;;;;35.15;16.83;;;-3.60;38.80;;;;;;5090191;28;20108;-82
2022/12/15 02:58:36;;;;;;;37.92;17.70;;;-3.50;48.70;;;;;;5083010;28;20496;-83
2022/12/15 03:01:07;;;;;;;35.00;16.88;;;-3.50;51.60;;;;;;5080439;28;20051;-83
2022/12/15 03:03:34;;;;;;;37.15;16.92;;;-3.50;49.30;;;;;;5085115;28;20046;-83
2022/12/15 03:06:01;;;;;;;39.83;16.55;;;-3.50;43.70;;;;;;5095323;28;20039;-83
2022/12/15 03:08:28;;;;;;;38.95;18.58;;;-3.50;44.40;;;;;;5083470;28;20647;-83
2022/12/15 03:10:55;;;;;;;38.35;17.42;;;-3.50;47.10;;;;;;5092802;28;20035;-84
2022/12/15 03:13:20;;;;;;;40.25;17.05;;;-3.50;48.00;;;;;;5079880;28;20044;-83
2022/12/15 03:15:46;;;;;;;35.55;17.65;;;-3.50;47.60;;;;;;5107652;28;20131;-83
2022/12/15 03:18:12;;;;;;;31.98;16.48;;;-3.50;48.60;;;;;;5071540;28;20117;-86
2022/12/15 03:20:38;;;;;;;39.78;18.33;;;-3.50;48.20;;;;;;5083568;28;20134;-83
2022/12/15 03:23:03;;;;;;;38.83;16.75;;;-3.50;46.50;;;;;;5108061;27;20039;-83
2022/12/15 03:25:29;;;;;;;34.55;16.35;;;-3.50;46.60;;;;;;5092531;27;20047;-83
2022/12/15 03:27:55;;;;;;;44.97;19.33;;;-3.50;51.80;;;;;;5080665;27;20046;-82
2022/12/15 03:30:21;;;;;;;40.38;18.38;;;-3.40;56.70;;;;;;5096096;27;20051;-82
2022/12/15 03:32:47;;;;;;;43.05;18.15;;;-3.40;54.90;;;;;;5079124;27;20108;-83
2022/12/15 03:35:12;;;;;;;37.38;17.77;;;-3.50;56.00;;;;;;5076891;27;20400;-85
2022/12/15 03:37:39;;;;;;;37.72;18.00;;;-3.50;54.10;;;;;;5103297;27;20113;-84
2022/12/15 03:40:06;;;;;;;34.58;17.27;;;-3.50;54.80;;;;;;5097158;27;20660;-82
2022/12/15 03:42:50;;;;;;;39.08;17.15;;;-3.50;50.90;;;;;;5113973;27;20042;-82
2022/12/15 03:45:24;;;;;;;35.17;16.27;;;-3.50;51.60;;;;;;5067639;28;20050;-85
2022/12/15 03:47:51;;;;;;;36.78;17.33;;;-3.50;55.50;;;;;;5112821;27;20108;-83
2022/12/15 03:50:19;;;;;;;38.55;17.40;;;-3.40;54.50;;;;;;5101055;28;20063;-85
2022/12/15 03:52:49;;;;;;;37.75;17.25;;;-3.40;57.10;;;;;;5093257;27;20051;-85
2022/12/15 03:55:15;;;;;;;32.42;14.35;;;-3.40;60.30;;;;;;5094611;27;20062;-85
2022/12/15 03:57:41;;;;;;;36.22;16.75;;;-3.40;60.90;;;;;;5061930;27;20043;-82
2022/12/15 04:00:07;;;;;;;35.17;16.90;;;-3.40;58.10;;;;;;5080635;27;20639;-82
2022/12/15 04:02:33;;;;;;;37.65;18.05;;;-3.40;55.80;;;;;;5095847;27;20119;-82
2022/12/15 04:04:59;;;;;;;37.20;17.52;;;-3.40;56.90;;;;;;5080231;27;20130;-83
2022/12/15 04:07:24;;;;;;;36.30;16.83;;;-3.50;56.00;;;;;;5061925;27;20078;-82
2022/12/15 04:09:50;;;;;;;36.88;18.65;;;-3.40;58.80;;;;;;5078516;27;20071;-82
2022/12/15 04:12:16;;;;;;;33.80;17.38;;;-3.40;58.00;;;;;;5095757;27;20035;-82
2022/12/15 04:14:41;;;;;;;32.78;16.92;;;-3.50;56.50;;;;;;5097636;27;20807;-82
2022/12/15 04:17:11;;;;;;;38.28;17.38;;;-3.50;54.60;;;;;;5078456;27;20519;-82
2022/12/15 04:22:44;;;;;;;39.42;17.70;;;-3.50;54.90;;;;;;5030148;28;20141;-82
2022/12/15 05:34:11;;;;;;;27.02;14.93;;;-2.90;81.50;;;;;;5112399;27;20050;-78
2022/12/15 05:36:37;;;;;;;31.63;15.98;;;-3.00;78.40;;;;;;5090651;27;20043;-81
2022/12/15 05:39:03;;;;;;;28.50;14.52;;;-3.00;73.40;;;;;;5096276;27;20055;-79
2022/12/15 05:41:29;;;;;;;27.38;14.20;;;-3.10;75.40;;;;;;5078824;27;20405;-83
2022/12/15 05:43:55;;;;;;;33.03;14.90;;;-3.00;77.50;;;;;;5089226;27;20043;-79
2022/12/15 05:46:20;;;;;;;26.77;13.25;;;-3.00;80.50;;;;;;5072930;27;20035;-82
2022/12/15 05:48:46;;;;;;;27.95;14.35;;;-3.00;81.30;;;;;;5093824;27;20051;-82
2022/12/15 05:51:13;;;;;;;31.58;14.43;;;-3.00;82.60;;;;;;5086824;27;20039;-83
2022/12/15 05:53:40;;;;;;;25.15;13.73;;;-3.00;79.80;;;;;;5114580;27;20081;-82
2022/12/15 05:56:11;;;;;;;28.95;13.48;;;-3.00;79.80;;;;;;5092438;27;20111;-82
2022/12/15 05:58:38;;;;;;;28.10;13.73;;;-3.00;74.80;;;;;;5076132;27;20085;-82
2022/12/15 06:01:10;;;;;;;27.17;12.65;;;-3.00;71.80;;;;;;5089502;27;20518;-82
2022/12/15 06:03:36;;;;;;;31.05;13.02;;;-3.00;69.10;;;;;;5096161;27;20095;-80
2022/12/15 06:06:03;;;;;;;27.45;14.30;;;-3.00;68.10;;;;;;5112387;27;20107;-81
2022/12/15 06:08:31;;;;;;;31.17;13.07;;;-3.10;67.60;;;;;;5113903;27;20049;-80
2022/12/15 06:10:57;;;;;;;25.13;12.60;;;-3.00;67.90;;;;;;5097233;27;20079;-81
2022/12/15 06:13:24;;;;;;;23.58;12.27;;;-3.00;73.00;;;;;;5093482;27;20484;-81
2022/12/15 06:15:58;;;;;;;26.85;12.95;;;-3.00;71.30;;;;;;5110797;27;20103;-81
2022/12/15 06:18:27;;;;;;;33.80;13.70;;;-3.00;68.90;;;;;;5090937;27;20039;-81
2022/12/15 06:21:01;;;;;;;23.42;13.02;;;-3.00;68.40;;;;;;5104490;27;20560;-81
2022/12/15 06:23:28;;;;;;;27.75;12.98;;;-3.00;67.10;;;;;;5093634;27;20035;-81
2022/12/15 06:25:54;;;;;;;24.17;12.68;;;-3.00;66.40;;;;;;5109423;27;20130;-81
2022/12/15 06:28:22;;;;;;;28.25;13.15;;;-3.00;71.30;;;;;;5096343;27;20035;-82
2022/12/15 06:30:53;;;;;;;25.65;12.25;;;-2.90;71.30;;;;;;5081446;27;20078;-82
2022/12/15 06:33:19;;;;;;;23.98;11.80;;;-2.90;64.60;;;;;;5089853;27;20051;-82
2022/12/15 06:35:45;;;;;;;29.73;13.35;;;-2.90;63.90;;;;;;5066010;27;20058;-82
2022/12/15 06:38:11;;;;;;;24.83;12.32;;;-2.90;67.00;;;;;;5113326;27;20043;-83
2022/12/15 06:40:37;;;;;;;28.42;12.30;;;-2.90;63.80;;;;;;5117734;27;20220;-81
2022/12/15 06:43:03;;;;;;;26.33;12.93;;;-2.90;68.70;;;;;;5095320;27;20043;-81
2022/12/15 06:45:28;;;;;;;25.25;13.55;;;-2.80;75.50;;;;;;5058214;28;20523;-81
2022/12/15 06:47:54;;;;;;;26.67;12.88;;;-2.70;72.70;;;;;;5107265;28;20105;-79
2022/12/15 06:50:20;;;;;;;27.98;13.07;;;-2.70;70.20;;;;;;5103306;27;20054;-81
2022/12/15 06:52:45;;;;;;;26.83;13.65;;;-2.60;70.70;;;;;;5094129;28;20079;-82
2022/12/15 06:55:11;;;;;;;25.45;13.02;;;-2.60;69.90;;;;;;5078362;28;20052;-81
2022/12/15 06:57:37;;;;;;;35.83;16.45;;;-2.50;74.60;;;;;;5076387;28;20051;-80
2022/12/15 07:00:05;;;;;;;31.83;14.18;;;-2.40;73.70;;;;;;5085279;28;20083;-82
2022/12/15 07:02:31;;;;;;;31.88;14.10;;;-2.30;72.50;;;;;;5090094;28;20043;-82
2022/12/15 07:04:58;;;;;;;25.60;12.27;;;-2.30;71.70;;;;;;5074494;28;20086;-82
2022/12/15 07:07:24;;;;;;;29.33;13.07;;;-2.20;68.30;;;;;;5089276;28;21344;-83
2022/12/15 07:09:50;;;;;;;22.73;12.07;;;-2.30;62.10;;;;;;5094477;28;20158;-83
2022/12/15 07:12:16;;;;;;;23.95;12.82;;;-2.40;54.10;;;;;;5082305;28;20075;-83
2022/12/15 07:14:42;;;;;;;34.28;14.38;;;-2.50;46.40;;;;;;5085483;28;20051;-85
2022/12/15 07:17:10;;;;;;;33.35;15.57;;;-2.50;39.70;;;;;;5108539;28;20104;-82
2022/12/15 07:19:36;;;;;;;27.17;12.25;;;-2.60;37.70;;;;;;5107157;28;20042;-83
2022/12/15 07:22:02;;;;;;;27.25;12.82;;;-2.70;37.00;;;;;;5076733;28;20047;-82
2022/12/15 07:24:27;;;;;;;24.55;12.32;;;-2.70;34.20;;;;;;5094197;28;20377;-83
2022/12/15 07:26:53;;;;;;;28.05;12.45;;;-2.70;32.00;;;;;;5077101;28;20043;-83
2022/12/15 07:29:19;;;;;;;24.33;11.75;;;-2.70;33.90;;;;;;5075270;28;20403;-83
2022/12/15 07:31:45;;;;;;;22.08;10.98;;;-2.70;35.00;;;;;;5077133;28;20054;-83
2022/12/15 07:34:10;;;;;;;23.98;12.10;;;-2.70;36.10;;;;;;5061184;28;20047;-82
2022/12/15 07:36:36;;;;;;;22.63;12.32;;;-2.70;38.50;;;;;;5092042;28;20485;-83
2022/12/15 07:39:03;;;;;;;23.92;11.27;;;-2.70;42.80;;;;;;5093883;28;20054;-82
2022/12/15 07:41:29;;;;;;;19.17;11.23;;;-2.60;52.70;;;;;;5081880;28;20127;-83
2022/12/15 07:43:55;;;;;;;21.13;11.90;;;-2.60;43.70;;;;;;5110632;28;20078;-82
2022/12/15 07:46:22;;;;;;;24.27;12.25;;;-2.60;39.30;;;;;;5076459;28;20082;-82
2022/12/15 07:48:48;;;;;;;27.00;11.85;;;-2.70;35.80;;;;;;5091518;28;20047;-83
2022/12/15 07:51:14;;;;;;;29.63;13.68;;;-2.60;35.20;;;;;;5091602;28;20134;-82
2022/12/15 07:53:40;;;;;;;28.73;12.32;;;-2.60;35.30;;;;;;5074504;28;20054;-84
2022/12/15 07:56:06;;;;;;;27.70;11.98;;;-2.70;29.60;;;;;;5106292;28;20051;-83
2022/12/15 07:58:32;;;;;;;19.80;11.48;;;-2.70;25.30;;;;;;5077405;28;20059;-83
2022/12/15 08:00:59;;;;;;;22.50;10.70;;;-2.70;24.20;;;;;;5076545;28;20497;-82
2022/12/15 08:03:26;;;;;;;22.15;12.35;;;-2.70;26.20;;;;;;5084317;28;20043;-82
2022/12/15 08:05:52;;;;;;;24.00;12.35;;;-2.70;29.00;;;;;;5089990;28;20039;-83
2022/12/15 08:08:18;;;;;;;21.42;12.00;;;-2.60;34.30;;;;;;5111319;28;20104;-82
2022/12/15 08:10:44;;;;;;;25.00;12.52;;;-2.60;35.30;;;;;;5111712;27;20058;-83
2022/12/15 08:13:10;;;;;;;26.38;11.68;;;-2.60;33.20;;;;;;5086646;28;20563;-82
2022/12/15 08:15:36;;;;;;;22.83;12.13;;;-2.60;30.50;;;;;;5090839;28;20043;-82
2022/12/15 08:18:03;;;;;;;24.27;12.77;;;-2.50;32.60;;;;;;5067096;27;20051;-83
2022/12/15 08:20:30;;;;;;;22.58;12.27;;;-2.50;34.10;;;;;;5097126;27;20072;-83
2022/12/15 08:22:55;;;;;;;22.58;11.32;;;-2.50;36.20;;;;;;5092526;27;20078;-84
2022/12/15 08:25:21;;;;;;;26.55;12.57;;;-2.30;43.80;;;;;;5063486;27;20131;-83
2022/12/15 08:27:50;;;;;;;27.70;13.07;;;-2.30;48.10;;;;;;5097204;27;20043;-83
2022/12/15 08:30:17;;;;;;;21.60;11.88;;;-2.30;48.20;;;;;;5113486;27;20039;-83
2022/12/15 08:32:46;;;;;;;24.92;12.65;;;-2.30;46.10;;;;;;5080666;27;20134;-83
2022/12/15 08:35:12;;;;;;;24.50;12.80;;;-2.30;43.70;;;;;;5094795;27;20089;-83
2022/12/15 08:37:38;;;;;;;24.85;12.95;;;-2.30;40.60;;;;;;5114206;27;20047;-82
2022/12/15 08:40:05;;;;;;;22.98;12.55;;;-2.30;39.50;;;;;;5096356;27;20050;-82
2022/12/15 08:42:35;;;;;;;23.02;12.35;;;-2.30;40.10;;;;;;5088343;28;20089;-83
2022/12/15 08:45:02;;;;;;;25.35;12.55;;;-2.30;45.80;;;;;;5079649;27;20039;-83
2022/12/15 08:47:27;;;;;;;24.70;12.88;;;-2.20;45.10;;;;;;5114354;27;20055;-83
2022/12/15 08:49:54;;;;;;;21.88;12.55;;;-2.20;45.30;;;;;;5080258;28;20043;-83
2022/12/15 08:52:21;;;;;;;22.77;11.32;;;-2.20;43.80;;;;;;5086904;27;20500;-82
2022/12/15 08:54:47;;;;;;;22.08;11.70;;;-2.20;46.50;;;;;;5096448;27;20700;-83
2022/12/15 08:57:12;;;;;;;21.55;12.23;;;-2.10;49.90;;;;;;5079504;27;20120;-83
2022/12/15 08:59:38;;;;;;;21.55;12.00;;;-2.10;51.00;;;;;;5082594;27;20578;-83
2022/12/15 09:02:04;;;;;;;21.60;11.52;;;-2.10;53.60;;;;;;5079690;27;20051;-83
2022/12/15 09:04:30;;;;;;;20.88;12.52;;;-2.00;57.70;;;;;;5079358;27;20462;-83
2022/12/15 09:06:55;;;;;;;24.33;13.25;;;-1.90;58.40;;;;;;5103000;28;20047;-83
2022/12/15 09:09:21;;;;;;;24.50;12.55;;;-1.90;57.70;;;;;;5110879;27;20043;-83
2022/12/15 09:11:48;;;;;;;24.33;11.80;;;-1.80;59.50;;;;;;5113851;27;20047;-83
2022/12/15 09:14:14;;;;;;;23.00;12.73;;;-1.70;63.50;;;;;;5079143;27;20064;-83
2022/12/15 09:16:40;;;;;;;21.35;12.65;;;-1.60;67.30;;;;;;5113819;27;20477;-83
2022/12/15 09:19:07;;;;;;;25.17;13.13;;;-1.50;69.80;;;;;;5078362;27;20087;-83
2022/12/15 09:21:33;;;;;;;24.23;11.73;;;-1.40;72.40;;;;;;5078962;27;20051;-83
2022/12/15 09:24:00;;;;;;;20.73;12.40;;;-1.30;69.80;;;;;;5092573;27;20386;-79
2022/12/15 09:26:28;;;;;;;23.40;12.38;;;-1.30;69.00;;;;;;5112930;27;20050;-79
2022/12/15 09:28:55;;;;;;;26.75;11.18;;;-1.30;68.40;;;;;;5113014;27;20104;-83
2022/12/15 09:31:27;;;;;;;20.92;12.48;;;-1.30;69.00;;;;;;5085278;28;20035;-83
2022/12/15 09:33:55;;;;;;;20.88;12.48;;;-1.10;69.40;;;;;;5111600;27;20062;-83
2022/12/15 09:36:21;;;;;;;23.38;12.95;;;-1.20;68.20;;;;;;5112345;27;20050;-83
2022/12/15 09:38:47;;;;;;;19.50;11.27;;;-1.20;70.80;;;;;;5076770;28;20090;-83
2022/12/15 09:41:12;;;;;;;24.85;12.55;;;-1.10;71.20;;;;;;5054709;27;20082;-83
2022/12/15 09:44:06;;;;;;;22.08;12.30;;;-1.00;75.80;;;;;;5095430;27;20062;-83
2022/12/15 09:46:41;;;;;;;26.20;12.10;;;-0.90;83.40;;;;;;5101438;28;20105;-83
2022/12/15 09:49:37;;;;;;;24.23;12.40;;;-0.70;88.50;;;;;;5104027;27;20043;-83
2022/12/15 09:52:25;;;;;;;21.50;12.35;;;-0.50;90.60;;;;;;5101853;27;20074;-85
2022/12/15 09:54:50;;;;;;;21.30;11.68;;;-0.50;90.90;;;;;;5074564;28;20052;-84
2022/12/15 09:57:45;;;;;;;16.05;9.57;;;-0.50;83.80;;;;;;5087680;27;20404;-84
2022/12/15 10:00:24;;;;;;;17.67;10.77;;;-0.40;67.90;;;;;;5100697;27;20050;-85
2022/12/15 10:03:19;;;;;;;19.58;11.43;;;-0.40;66.10;;;;;;5107730;28;20055;-85
2022/12/15 10:06:02;;;;;;;18.88;11.40;;;-0.30;65.50;;;;;;5019068;27;20223;-82
2022/12/15 10:08:32;;;;;;;18.60;10.93;;;-0.40;66.00;;;;;;5112436;27;20043;-82
2022/12/15 10:11:34;;;;;;;20.95;10.90;;;-0.40;68.80;;;;;;5112663;27;20070;-82
2022/12/15 10:14:26;;;;;;;19.75;10.55;;;-0.40;70.70;;;;;;5094300;27;20039;-82
2022/12/15 10:17:00;;;;;;;16.95;10.13;;;-0.30;71.40;;;;;;5111333;27;20043;-82
2022/12/15 10:19:33;;;;;;;16.15;9.77;;;-0.30;72.00;;;;;;5107837;28;20047;-82
2022/12/15 10:21:59;;;;;;;16.92;9.77;;;-0.20;73.80;;;;;;5108993;27;20061;-82
2022/12/15 10:24:29;;;;;;;20.10;10.57;;;-0.30;66.20;;;;;;5091217;28;20038;-84
2022/12/15 10:27:06;;;;;;;17.02;10.05;;;-0.20;61.20;;;;;;5104545;27;20141;-85
2022/12/15 10:30:03;;;;;;;19.75;10.88;;;-0.10;58.20;;;;;;5094691;27;20039;-84
2022/12/15 10:32:52;;;;;;;22.17;9.48;;;0.00;41.00;;;;;;5094982;27;20667;-84
2022/12/15 10:35:26;;;;;;;18.17;10.80;;;0.00;39.70;;;;;;5107488;28;20043;-84
2022/12/15 10:37:57;;;;;;;17.98;10.30;;;0.00;32.50;;;;;;5086837;27;20563;-82
2022/12/15 10:40:48;;;;;;;20.27;10.80;;;0.00;39.10;;;;;;5093874;27;20250;-82
2022/12/15 10:43:26;;;;;;;17.38;9.48;;;0.10;29.50;;;;;;5081048;27;20056;-82
2022/12/15 10:46:07;;;;;;;22.45;10.30;;;0.10;39.10;;;;;;5112354;27;20262;-82
2022/12/15 10:48:34;;;;;;;18.80;10.15;;;0.10;43.60;;;;;;5111303;27;20099;-83
2022/12/15 10:51:14;;;;;;;21.92;10.43;;;0.20;45.30;;;;;;5094646;28;20039;-83
2022/12/15 10:53:44;;;;;;;17.95;9.90;;;0.20;40.60;;;;;;5095070;28;20432;-82
2022/12/15 10:56:22;;;;;;;17.00;9.52;;;0.20;49.10;;;;;;5111388;28;20107;-83
2022/12/15 10:58:53;;;;;;;16.58;9.48;;;0.20;53.10;;;;;;5111651;28;20096;-82
2022/12/15 11:01:23;;;;;;;16.42;9.38;;;0.20;54.80;;;;;;5111195;28;20043;-82
2022/12/15 11:03:53;;;;;;;16.35;9.02;;;0.30;57.70;;;;;;5111846;28;20043;-83
2022/12/15 11:06:31;;;;;;;16.33;8.85;;;0.30;59.70;;;;;;5078329;28;20042;-82
2022/12/15 11:09:27;;;;;;;13.25;9.00;;;0.30;53.30;;;;;;5094915;28;20051;-82
2022/12/15 11:14:49;;;;;;;19.23;9.10;;;0.40;54.60;;;;;;5066492;28;20051;-82
2022/12/15 11:17:22;;;;;;;14.75;8.32;;;0.50;55.50;;;;;;5088796;28;20048;-85
2022/12/15 11:19:54;;;;;;;16.17;9.10;;;0.50;55.90;;;;;;5093863;28;20119;-82
2022/12/15 11:22:45;;;;;;;15.68;8.93;;;0.50;45.00;;;;;;5089636;28;20079;-83
2022/12/15 11:25:19;;;;;;;16.17;8.68;;;0.60;41.60;;;;;;5094074;28;20040;-81
2022/12/15 11:27:47;;;;;;;20.38;9.93;;;0.60;49.50;;;;;;5094827;28;20047;-83
2022/12/15 11:30:16;;;;;;;17.08;9.40;;;0.70;43.50;;;;;;5111041;28;20051;-82
2022/12/15 11:32:46;;;;;;;15.70;9.70;;;0.70;46.20;;;;;;5111720;28;20047;-83
2022/12/15 11:35:13;;;;;;;19.23;8.82;;;0.70;41.90;;;;;;5111170;28;20179;-82
2022/12/15 11:38:01;;;;;;;15.52;10.43;;;0.70;39.60;;;;;;5111022;28;20043;-82
2022/12/15 11:40:35;;;;;;;15.48;9.23;;;0.70;43.70;;;;;;5092994;28;20770;-83
2022/12/15 11:43:24;;;;;;;20.33;11.10;;;0.70;53.80;;;;;;5111418;28;20122;-82
2022/12/15 11:45:50;;;;;;;20.63;10.10;;;0.70;64.40;;;;;;5097450;27;20167;-83
2022/12/15 11:49:00;;;;;;;18.70;10.32;;;0.70;65.80;;;;;;5093844;28;20040;-82
2022/12/15 11:51:50;;;;;;;19.80;10.10;;;0.70;65.80;;;;;;5078844;27;20444;-83
2022/12/15 11:54:25;;;;;;;20.23;10.88;;;0.70;70.10;;;;;;5114992;27;20548;-83
2022/12/15 11:57:21;;;;;;;16.35;9.82;;;0.70;66.90;;;;;;5098750;27;20055;-83
2022/12/15 12:00:00;;;;;;;19.38;10.57;;;0.70;67.00;;;;;;5078057;28;20060;-82
2022/12/15 12:02:54;;;;;;;20.52;10.73;;;0.70;77.20;;;;;;5092730;27;20054;-83
2022/12/15 12:05:25;;;;;;;16.00;10.20;;;0.70;82.60;;;;;;5114596;27;20094;-83
2022/12/15 12:08:22;;;;;;;18.65;10.73;;;0.80;90.00;;;;;;5114946;27;20035;-81
2022/12/15 12:11:12;;;;;;;15.10;9.50;;;0.80;90.80;;;;;;5079978;28;20442;-83
2022/12/15 12:13:59;;;;;;;20.92;10.93;;;0.80;93.00;;;;;;5107830;27;20058;-83
2022/12/15 12:16:44;;;;;;;14.85;9.23;;;0.80;94.60;;;;;;5114521;27;20051;-82
2022/12/15 12:19:15;;;;;;;16.45;9.13;;;0.80;94.70;;;;;;5103584;27;20412;-83
2022/12/15 12:21:47;;;;;;;22.92;9.10;;;0.80;97.80;;;;;;5114173;27;20043;-80
2022/12/15 12:24:28;;;;;;;19.13;9.00;;;0.90;98.10;;;;;;5114611;27;20039;-82
2022/12/15 12:27:21;;;;;;;17.20;9.05;;;0.90;98.30;;;;;;5097184;27;20522;-83
2022/12/15 12:29:54;;;;;;;19.45;9.88;;;0.90;98.50;;;;;;5113955;27;20112;-83
2022/12/15 12:32:34;;;;;;;19.67;9.13;;;0.90;99.90;;;;;;5096926;27;20047;-83
2022/12/15 12:35:14;;;;;;;18.13;8.55;;;0.90;99.90;;;;;;5113597;27;20462;-83
2022/12/15 12:37:49;;;;;;;17.42;9.90;;;0.90;99.90;;;;;;5113549;27;20497;-83
2022/12/15 12:40:18;;;;;;;16.00;8.98;;;1.00;99.90;;;;;;5096624;27;20046;-82
2022/12/15 12:42:55;;;;;;;20.27;9.25;;;1.00;99.90;;;;;;5113723;27;20115;-82
2022/12/15 12:45:35;;;;;;;15.80;9.35;;;1.00;99.90;;;;;;5083289;27;20063;-82
2022/12/15 12:48:43;;;;;;;20.48;9.50;;;1.00;99.90;;;;;;5096632;27;20399;-82
2022/12/15 12:51:24;;;;;;;16.20;9.45;;;1.00;99.90;;;;;;5108683;27;20073;-83
2022/12/15 12:53:50;;;;;;;16.90;9.45;;;1.10;99.90;;;;;;5114114;27;20077;-82
2022/12/15 12:56:29;;;;;;;23.40;9.75;;;1.10;99.90;;;;;;5112142;28;20043;-83
2022/12/15 12:58:55;;;;;;;16.23;9.75;;;1.10;99.90;;;;;;5113800;27;20086;-81
2022/12/15 13:01:26;;;;;;;17.05;9.05;;;1.10;99.90;;;;;;5074530;28;20462;-83
2022/12/15 13:04:27;;;;;;;15.55;8.82;;;1.20;99.90;;;;;;5113321;27;20122;-83
2022/12/15 13:07:00;;;;;;;15.52;8.57;;;1.20;99.90;;;;;;5031772;28;20052;-83
2022/12/15 13:09:39;;;;;;;14.07;7.82;;;1.20;99.90;;;;;;5087174;27;20073;-83
2022/12/15 13:12:33;;;;;;;17.85;8.93;;;1.30;99.90;;;;;;5082960;28;20171;-82
2022/12/15 13:15:02;;;;;;;18.33;9.32;;;1.40;99.90;;;;;;5113513;27;20051;-83
2022/12/15 13:17:39;;;;;;;15.85;8.13;;;1.30;99.90;;;;;;5112478;27;20100;-84
2022/12/15 13:20:21;;;;;;;16.58;9.35;;;1.40;99.90;;;;;;5113884;27;20385;-83
2022/12/15 13:22:47;;;;;;;15.40;7.75;;;1.40;99.90;;;;;;5094567;27;20050;-83
2022/12/15 13:25:37;;;;;;;16.70;8.43;;;1.40;99.90;;;;;;5095962;27;20054;-83
2022/12/15 13:28:38;;;;;;;13.45;8.82;;;1.40;99.90;;;;;;5096322;27;20050;-82
2022/12/15 13:31:19;;;;;;;16.95;9.00;;;1.40;99.90;;;;;;5076610;28;20051;-83
2022/12/15 13:33:48;;;;;;;16.50;8.52;;;1.30;99.90;;;;;;5110212;27;20122;-82
2022/12/15 13:36:35;;;;;;;18.45;8.82;;;1.40;99.90;;;;;;5113508;27;20690;-82
2022/12/15 13:39:15;;;;;;;18.13;9.40;;;1.30;99.90;;;;;;5084186;27;20065;-83
2022/12/15 13:42:04;;;;;;;15.13;8.68;;;1.40;99.90;;;;;;5112131;27;20046;-83
2022/12/15 13:44:36;;;;;;;14.95;8.73;;;1.40;99.90;;;;;;5095941;27;20050;-83
2022/12/15 13:47:14;;;;;;;17.23;9.65;;;1.40;99.90;;;;;;5100964;27;20054;-84
2022/12/15 13:49:48;;;;;;;21.02;9.98;;;1.40;99.90;;;;;;5112281;27;20079;-82
2022/12/15 13:52:28;;;;;;;25.30;9.77;;;1.30;99.90;;;;;;5085883;28;20051;-83
2022/12/15 13:54:57;;;;;;;22.92;10.02;;;1.30;99.90;;;;;;5095368;27;20129;-83
2022/12/15 13:57:25;;;;;;;15.80;9.20;;;1.30;99.90;;;;;;5096063;27;20054;-83
2022/12/15 14:00:17;;;;;;;19.40;10.90;;;1.30;99.90;;;;;;5058572;28;20184;-83
2022/12/15 14:02:44;;;;;;;24.95;16.08;;;1.30;99.90;;;;;;5109061;27;20051;-82
2022/12/15 14:05:16;;;;;;;41.13;25.67;;;1.30;99.90;;;;;;5078570;27;20039;-82
2022/12/15 14:07:46;;;;;;;66.57;42.95;;;1.30;99.90;;;;;;5112197;27;20541;-82
2022/12/15 14:10:19;;;;;;;28.90;14.90;;;1.20;99.90;;;;;;5092631;28;20051;-82
2022/12/15 14:12:47;;;;;;;27.77;17.10;;;1.20;99.90;;;;;;5099725;27;20043;-83
2022/12/15 14:15:15;;;;;;;24.50;12.90;;;1.10;99.90;;;;;;5095127;27;20054;-82
2022/12/15 14:17:46;;;;;;;26.60;13.30;;;1.10;99.90;;;;;;5111796;27;20093;-83
2022/12/15 14:20:18;;;;;;;28.10;15.70;;;1.20;99.90;;;;;;5111932;27;20039;-82
2022/12/15 14:22:44;;;;;;;23.95;13.55;;;1.10;99.90;;;;;;5107411;28;20051;-83
2022/12/15 14:25:19;;;;;;;19.52;12.60;;;1.10;99.90;;;;;;5091434;27;20039;-83
2022/12/15 14:27:45;;;;;;;23.02;12.95;;;1.10;99.90;;;;;;5086694;27;20468;-83
2022/12/15 14:30:13;;;;;;;22.92;13.68;;;1.10;99.90;;;;;;5068268;27;20156;-83
2022/12/15 14:32:41;;;;;;;22.67;13.60;;;1.10;99.90;;;;;;5095191;27;20082;-83
2022/12/15 14:35:20;;;;;;;31.40;15.00;;;1.00;99.90;;;;;;5111718;27;20133;-82
2022/12/15 14:37:45;;;;;;;27.38;15.13;;;1.00;99.90;;;;;;5094848;27;20043;-82
2022/12/15 14:40:17;;;;;;;35.63;17.02;;;1.00;99.90;;;;;;5111379;27;20043;-81
2022/12/15 14:42:44;;;;;;;26.35;13.85;;;1.00;99.90;;;;;;5111950;27;20142;-83
2022/12/15 14:45:19;;;;;;;24.58;14.20;;;1.00;99.90;;;;;;5077821;27;20031;-82
2022/12/15 14:47:52;;;;;;;24.65;14.35;;;1.00;99.90;;;;;;5094517;27;20558;-83
2022/12/15 14:50:20;;;;;;;43.45;35.42;;;0.90;99.90;;;;;;5094546;28;20049;-83
2022/12/15 14:52:46;;;;;;;25.65;16.25;;;0.90;99.90;;;;;;5090697;28;20039;-84
2022/12/15 14:55:30;;;;;;;27.95;14.63;;;0.90;99.90;;;;;;5082191;27;20480;-83
2022/12/15 14:57:56;;;;;;;25.50;14.48;;;0.90;99.90;;;;;;5111379;28;20050;-82
2022/12/15 15:00:31;;;;;;;27.27;14.50;;;0.80;99.90;;;;;;5110844;28;20063;-82
2022/12/15 15:03:19;;;;;;;24.10;15.00;;;0.80;99.90;;;;;;5111134;28;20043;-82
2022/12/15 15:06:11;;;;;;;25.17;15.18;;;0.70;99.90;;;;;;5093763;28;20043;-83
2022/12/15 15:08:49;;;;;;;25.30;14.45;;;0.70;99.90;;;;;;5111668;28;20061;-82
2022/12/15 15:11:46;;;;;;;25.95;14.32;;;0.70;99.90;;;;;;5094314;28;20043;-82
2022/12/15 15:14:24;;;;;;;26.83;15.80;;;0.70;99.90;;;;;;5081420;28;20058;-82
2022/12/15 15:17:08;;;;;;;30.40;16.50;;;0.60;99.90;;;;;;5111101;28;20480;-82
2022/12/15 15:19:37;;;;;;;25.85;16.70;;;0.60;99.90;;;;;;5110060;27;20100;-82
2022/12/15 15:22:03;;;;;;;22.23;15.40;;;0.60;99.90;;;;;;5115578;27;20051;-82
2022/12/15 15:24:33;;;;;;;25.60;16.55;;;0.50;99.90;;;;;;5081559;27;20115;-81
2022/12/15 15:27:36;;;;;;;30.67;17.63;;;0.50;99.90;;;;;;5115685;27;20134;-83